• Join FlightAware (Why Join?)
  • Login
  • US Flag 
03:06PM EDT


 

Airport Tracker/Info


-or-


 

Live Flight TrackerFlight Track Log ✈ EJA122 ✈ 20-Sep-2013 ✈ KPIT - KSBN

Flight Track Log - Related Links

Times and Time Zones

All times are in EDT time to prevent confusion due to time zone crossing. See the EJA122 flight status page for this flight to view local times or setup timezone preferences in your user account.

Time Position Orientation Groundspeed Altitude Reporting Facility
EDT Latitude Longitude Course Direction KTS MPH feet Rate Location/Type
03:50PM 40.4942 -80.3964 264° West 254 292 6,500  Level Cleveland Center
03:51PM 40.4944 -80.5161 270° West 274 315 10,400 3,120 Climbing Cleveland Center
03:52PM 40.4911 -80.6275 268° West 302 348 13,100 1,980 Climbing Cleveland Center
03:54PM 40.5256 -80.7453 291° West 351 404 14,600 1,440 Climbing Cleveland Center
03:55PM 40.6494 -80.9294 291° West  Level Estimated
03:55PM 40.5653 -80.8742 292° West 376 433 16,100  Level Cleveland Center
03:56PM 40.6097 -81.0094 293° West 399 459 17,500 1,500 Climbing Cleveland Center
03:57PM 40.6600 -81.1731 292° West 405 466 19,200 1,500 Climbing Cleveland Center
03:58PM 40.7011 -81.3036 293° West 386 444 20,700 1,380 Climbing Cleveland Center
03:59PM 40.7411 -81.4308 293° West 374 430 22,100 1,380 Climbing Cleveland Center
04:00PM 40.7817 -81.5561 293° West 367 422 23,600 1,440 Climbing Cleveland Center
04:01PM 40.8122 -81.6822 288° West 358 412 25,100 1,380 Climbing Cleveland Center
04:02PM 40.8364 -81.8067 284° West 349 402 26,500 1,380 Climbing Cleveland Center
04:03PM 40.8592 -81.9289 284° West 341 392 28,000 720 Climbing Cleveland Center
04:04PM 40.8811 -82.0533 283° West 344 396 28,000  Level Cleveland Center
04:05PM 40.9056 -82.1922 283° West 376 433 28,000  Level Cleveland Center
04:06PM 40.9358 -82.3581 284° West 392 451 28,000  Level Cleveland Center
04:07PM 40.9625 -82.5047 284° West 402 463 28,000  Level Cleveland Center
04:08PM 40.9878 -82.6531 283° West 408 470 28,000  Level Cleveland Center
04:09PM 41.0142 -82.8014 283° West 411 473 28,000  Level Cleveland Center
04:10PM 41.0667 -82.9397 297° West 419 482 28,000  Level Cleveland Center
04:11PM 41.1189 -83.0789 297° West 418 481 28,000  Level Cleveland Center
04:12PM 41.1500 -83.2222 286° West 415 478 28,000  Level Cleveland Center
04:13PM 41.2031 -83.3925 293° West 418 481 28,000  Level Cleveland Center
04:14PM 41.2486 -83.5358 293° West 420 483 28,000  Level Cleveland Center
04:15PM 41.2953 -83.6781 294° West 420 483 28,000 -60 Level Cleveland Center
04:16PM 41.3306 -83.8236 288° West 416 479 27,900 -540 Descending Cleveland Center
04:17PM 41.3672 -83.9714 288° West 420 483 26,900 -1,020 Descending Cleveland Center
04:18PM 41.3914 -84.1250 282° West 425 489 25,900 -1,080 Descending Cleveland Center
04:19PM 41.4067 -84.3022 277° West 421 484 24,700 -1,080 Descending Cleveland Center
04:20PM 41.4211 -84.4600 277° West 426 490 23,700 -960 Descending Cleveland Center
04:21PM 41.4314 -84.6167 275° West 427 491 22,700 -1,260 Descending Cleveland Center
04:22PM 41.4431 -84.7728 276° West 423 487 21,200 -1,800 Descending Cleveland Center
04:24PM 41.4542 -84.9189 276° West 404 465 19,100 -2,280 Descending Cleveland Center
04:25PM 41.4656 -85.0803 275° West 366 421 16,600 -1,560 Descending Cleveland Center
04:26PM 41.4733 -85.2092 275° West 351 404 15,900 -1,140 Descending Cleveland Center
04:27PM 41.4819 -85.3372 275° West 345 397 14,300 -1,500 Descending Cleveland Center
04:28PM 41.4892 -85.4672 274° West 345 397 12,800 -1,500 Descending Cleveland Center
04:29PM 41.5150 -85.5803 287° West 323 372 11,200 -1,380 Descending Cleveland Center
04:30PM 41.5689 -85.6692 309° West 320 368 10,000 -600 Descending Cleveland Center
04:31PM 41.6247 -85.7547 311° West 299 344 10,000 -600 Level Cleveland Center
04:32PM 41.6953 -85.8675 310° West 284 327 8,600 -1,260 Descending Chicago Center
04:33PM 41.7436 -85.9425 311° West 270 311 7,100 -1,440 Descending Chicago Center
04:34PM 41.7903 -86.0203 309° West 269 310 5,600 -1,440 Descending Chicago Center
04:35PM 41.8319 -86.0886 309° West 248 285 4,100 -1,500 Descending Chicago Center
04:36PM 41.8786 -86.1631 310° West 225 259 2,500 -780 Descending Chicago Center
04:37PM 41.8828 -86.2333 275° West 209 241 2,500  Level Chicago Center
04:38PM 41.8783 -86.3056 265° West 201 231 2,500  Level Chicago Center
04:39PM 41.8306 -86.3231 195° South 195 224 2,500 -240 Level Chicago Center
04:40PM 41.7775 -86.3228 180° South 193 222 2,100 -540 Descending Chicago Center
04:41PM 41.7214 -86.3211 179° South 189 217 1,500 -600 Descending Chicago Center